sensor_id;sensor_type;location;lat;lon;timestamp;pressure;altitude;pressure_sealevel;temperature;humidity
54872;BME280;43914;57.680;11.982;2023-01-30T00:01:44;98356.11;;;4.17;100.00
54872;BME280;43914;57.680;11.982;2023-01-30T00:04:11;98368.54;;;4.15;100.00
54872;BME280;43914;57.680;11.982;2023-01-30T00:06:38;98361.46;;;4.14;100.00
54872;BME280;43914;57.680;11.982;2023-01-30T00:09:04;98353.48;;;4.11;100.00
54872;BME280;43914;57.680;11.982;2023-01-30T00:11:29;98355.57;;;4.07;100.00
54872;BME280;43914;57.680;11.982;2023-01-30T00:13:58;98338.27;;;4.04;100.00
54872;BME280;43914;57.680;11.982;2023-01-30T00:16:24;98330.80;;;4.01;100.00
54872;BME280;43914;57.680;11.982;2023-01-30T00:18:49;98331.09;;;3.98;100.00
54872;BME280;43914;57.680;11.982;2023-01-30T00:21:15;98331.83;;;3.96;100.00
54872;BME280;43914;57.680;11.982;2023-01-30T00:23:41;98337.60;;;3.93;100.00
54872;BME280;43914;57.680;11.982;2023-01-30T00:26:07;98338.08;;;3.90;100.00
54872;BME280;43914;57.680;11.982;2023-01-30T00:28:33;98328.65;;;3.89;100.00
54872;BME280;43914;57.680;11.982;2023-01-30T00:30:59;98337.23;;;3.87;100.00
54872;BME280;43914;57.680;11.982;2023-01-30T00:33:25;98336.41;;;3.84;100.00
54872;BME280;43914;57.680;11.982;2023-01-30T00:35:53;98336.13;;;3.84;100.00
54872;BME280;43914;57.680;11.982;2023-01-30T00:38:19;98340.54;;;3.84;100.00
54872;BME280;43914;57.680;11.982;2023-01-30T00:40:46;98331.67;;;3.84;100.00
54872;BME280;43914;57.680;11.982;2023-01-30T00:43:13;98331.27;;;3.83;100.00
54872;BME280;43914;57.680;11.982;2023-01-30T00:45:59;98322.18;;;3.82;100.00
54872;BME280;43914;57.680;11.982;2023-01-30T00:48:44;98323.70;;;3.81;100.00
54872;BME280;43914;57.680;11.982;2023-01-30T00:51:10;98323.54;;;3.80;100.00
54872;BME280;43914;57.680;11.982;2023-01-30T00:53:35;98320.54;;;3.78;100.00
54872;BME280;43914;57.680;11.982;2023-01-30T00:56:01;98315.31;;;3.78;100.00
54872;BME280;43914;57.680;11.982;2023-01-30T00:58:27;98315.52;;;3.77;100.00
54872;BME280;43914;57.680;11.982;2023-01-30T01:00:52;98313.67;;;3.76;100.00
54872;BME280;43914;57.680;11.982;2023-01-30T01:03:19;98311.05;;;3.75;100.00
54872;BME280;43914;57.680;11.982;2023-01-30T01:05:45;98316.36;;;3.73;100.00
54872;BME280;43914;57.680;11.982;2023-01-30T01:08:11;98319.95;;;3.73;100.00
54872;BME280;43914;57.680;11.982;2023-01-30T01:10:36;98312.64;;;3.73;100.00
54872;BME280;43914;57.680;11.982;2023-01-30T01:13:02;98309.41;;;3.72;100.00
54872;BME280;43914;57.680;11.982;2023-01-30T01:15:30;98316.73;;;3.72;100.00
54872;BME280;43914;57.680;11.982;2023-01-30T01:17:56;98300.91;;;3.73;100.00
54872;BME280;43914;57.680;11.982;2023-01-30T01:20:22;98297.47;;;3.74;100.00
54872;BME280;43914;57.680;11.982;2023-01-30T01:22:47;98299.80;;;3.72;100.00
54872;BME280;43914;57.680;11.982;2023-01-30T01:25:18;98297.84;;;3.71;100.00
54872;BME280;43914;57.680;11.982;2023-01-30T01:27:44;98296.08;;;3.68;100.00
54872;BME280;43914;57.680;11.982;2023-01-30T01:30:10;98295.70;;;3.67;100.00
54872;BME280;43914;57.680;11.982;2023-01-30T01:32:36;98302.32;;;3.66;100.00
54872;BME280;43914;57.680;11.982;2023-01-30T01:35:01;98296.23;;;3.65;100.00
54872;BME280;43914;57.680;11.982;2023-01-30T01:37:27;98299.49;;;3.64;100.00
54872;BME280;43914;57.680;11.982;2023-01-30T01:39:52;98297.41;;;3.62;100.00
54872;BME280;43914;57.680;11.982;2023-01-30T01:42:37;98296.88;;;3.61;100.00
54872;BME280;43914;57.680;11.982;2023-01-30T01:47:42;98288.86;;;3.60;100.00
54872;BME280;43914;57.680;11.982;2023-01-30T01:50:18;98288.52;;;3.58;100.00
54872;BME280;43914;57.680;11.982;2023-01-30T01:52:46;98296.11;;;3.57;100.00
54872;BME280;43914;57.680;11.982;2023-01-30T01:55:14;98285.65;;;3.57;100.00
54872;BME280;43914;57.680;11.982;2023-01-30T01:57:53;98284.88;;;3.56;100.00
54872;BME280;43914;57.680;11.982;2023-01-30T02:00:21;98277.84;;;3.56;100.00
54872;BME280;43914;57.680;11.982;2023-01-30T02:02:57;98281.85;;;3.57;100.00
54872;BME280;43914;57.680;11.982;2023-01-30T02:05:31;98281.11;;;3.55;100.00
54872;BME280;43914;57.680;11.982;2023-01-30T02:10:36;98273.14;;;3.54;100.00
54872;BME280;43914;57.680;11.982;2023-01-30T02:13:05;98262.92;;;3.53;100.00
54872;BME280;43914;57.680;11.982;2023-01-30T02:15:32;98264.89;;;3.51;100.00
54872;BME280;43914;57.680;11.982;2023-01-30T02:17:58;98251.66;;;3.52;100.00
54872;BME280;43914;57.680;11.982;2023-01-30T02:29:21;98249.27;;;3.54;100.00
54872;BME280;43914;57.680;11.982;2023-01-30T02:31:44;98235.18;;;3.54;100.00
54872;BME280;43914;57.680;11.982;2023-01-30T02:46:16;98236.13;;;3.53;100.00
54872;BME280;43914;57.680;11.982;2023-01-30T02:49:16;98233.56;;;3.54;100.00
54872;BME280;43914;57.680;11.982;2023-01-30T02:51:47;98236.08;;;3.52;100.00
54872;BME280;43914;57.680;11.982;2023-01-30T02:54:14;98226.08;;;3.51;100.00
54872;BME280;43914;57.680;11.982;2023-01-30T02:59:11;98230.13;;;3.53;100.00
54872;BME280;43914;57.680;11.982;2023-01-30T03:09:58;98232.80;;;3.58;100.00
54872;BME280;43914;57.680;11.982;2023-01-30T03:17:53;98233.52;;;3.53;100.00
54872;BME280;43914;57.680;11.982;2023-01-30T03:20:19;98237.72;;;3.52;100.00
54872;BME280;43914;57.680;11.982;2023-01-30T03:22:45;98238.73;;;3.52;100.00
54872;BME280;43914;57.680;11.982;2023-01-30T03:25:19;98234.33;;;3.51;100.00
54872;BME280;43914;57.680;11.982;2023-01-30T03:27:45;98229.95;;;3.53;100.00
54872;BME280;43914;57.680;11.982;2023-01-30T03:30:11;98224.16;;;3.54;100.00
54872;BME280;43914;57.680;11.982;2023-01-30T03:32:37;98218.35;;;3.56;100.00
54872;BME280;43914;57.680;11.982;2023-01-30T03:35:03;98212.69;;;3.60;100.00
54872;BME280;43914;57.680;11.982;2023-01-30T03:37:29;98217.73;;;3.62;100.00
54872;BME280;43914;57.680;11.982;2023-01-30T03:39:54;98211.06;;;3.65;100.00
54872;BME280;43914;57.680;11.982;2023-01-30T03:42:20;98197.95;;;3.66;100.00
54872;BME280;43914;57.680;11.982;2023-01-30T03:44:45;98208.62;;;3.66;100.00
54872;BME280;43914;57.680;11.982;2023-01-30T03:47:11;98209.77;;;3.66;100.00
54872;BME280;43914;57.680;11.982;2023-01-30T03:49:36;98209.27;;;3.66;100.00
54872;BME280;43914;57.680;11.982;2023-01-30T03:52:02;98214.95;;;3.69;100.00
54872;BME280;43914;57.680;11.982;2023-01-30T03:54:27;98198.32;;;3.69;100.00
54872;BME280;43914;57.680;11.982;2023-01-30T03:56:53;98189.91;;;3.68;100.00
54872;BME280;43914;57.680;11.982;2023-01-30T03:59:18;98186.43;;;3.69;100.00
54872;BME280;43914;57.680;11.982;2023-01-30T04:01:44;98183.68;;;3.71;100.00
54872;BME280;43914;57.680;11.982;2023-01-30T04:04:09;98181.16;;;3.74;100.00
54872;BME280;43914;57.680;11.982;2023-01-30T04:06:35;98182.80;;;3.78;100.00
54872;BME280;43914;57.680;11.982;2023-01-30T04:09:00;98180.30;;;3.81;100.00
54872;BME280;43914;57.680;11.982;2023-01-30T04:11:26;98177.77;;;3.81;100.00
54872;BME280;43914;57.680;11.982;2023-01-30T04:13:51;98176.08;;;3.80;100.00
54872;BME280;43914;57.680;11.982;2023-01-30T04:16:37;98167.59;;;3.78;100.00
54872;BME280;43914;57.680;11.982;2023-01-30T04:19:02;98150.79;;;3.73;100.00
54872;BME280;43914;57.680;11.982;2023-01-30T04:21:28;98143.88;;;3.68;100.00
54872;BME280;43914;57.680;11.982;2023-01-30T04:23:53;98140.61;;;3.65;100.00
54872;BME280;43914;57.680;11.982;2023-01-30T04:26:19;98136.83;;;3.61;100.00
54872;BME280;43914;57.680;11.982;2023-01-30T04:28:44;98125.16;;;3.57;100.00
54872;BME280;43914;57.680;11.982;2023-01-30T04:31:10;98123.73;;;3.53;100.00
54872;BME280;43914;57.680;11.982;2023-01-30T04:33:35;98121.85;;;3.50;100.00
54872;BME280;43914;57.680;11.982;2023-01-30T04:36:03;98118.31;;;3.45;100.00
54872;BME280;43914;57.680;11.982;2023-01-30T04:38:30;98125.81;;;3.43;100.00
54872;BME280;43914;57.680;11.982;2023-01-30T04:40:56;98123.60;;;3.41;100.00
54872;BME280;43914;57.680;11.982;2023-01-30T04:43:24;98128.30;;;3.41;99.79
54872;BME280;43914;57.680;11.982;2023-01-30T04:45:51;98139.08;;;3.38;99.71
54872;BME280;43914;57.680;11.982;2023-01-30T04:48:18;98134.70;;;3.38;99.37
54872;BME280;43914;57.680;11.982;2023-01-30T04:50:47;98137.66;;;3.38;99.25
54872;BME280;43914;57.680;11.982;2023-01-30T04:53:13;98130.05;;;3.42;99.47
54872;BME280;43914;57.680;11.982;2023-01-30T04:55:38;98132.72;;;3.46;99.79
54872;BME280;43914;57.680;11.982;2023-01-30T04:58:04;98119.23;;;3.51;100.00
54872;BME280;43914;57.680;11.982;2023-01-30T05:00:30;98119.23;;;3.53;100.00
54872;BME280;43914;57.680;11.982;2023-01-30T05:02:55;98115.23;;;3.54;100.00
54872;BME280;43914;57.680;11.982;2023-01-30T05:05:22;98119.40;;;3.53;100.00
54872;BME280;43914;57.680;11.982;2023-01-30T05:07:48;98111.52;;;3.54;100.00
54872;BME280;43914;57.680;11.982;2023-01-30T05:10:14;98109.35;;;3.56;100.00
54872;BME280;43914;57.680;11.982;2023-01-30T05:12:39;98113.19;;;3.56;100.00
54872;BME280;43914;57.680;11.982;2023-01-30T05:15:06;98103.46;;;3.55;100.00
54872;BME280;43914;57.680;11.982;2023-01-30T05:17:33;98101.41;;;3.54;100.00
54872;BME280;43914;57.680;11.982;2023-01-30T05:19:59;98097.94;;;3.54;100.00
54872;BME280;43914;57.680;11.982;2023-01-30T05:22:24;98100.04;;;3.54;100.00
54872;BME280;43914;57.680;11.982;2023-01-30T05:24:50;98096.35;;;3.56;100.00
54872;BME280;43914;57.680;11.982;2023-01-30T05:27:16;98095.39;;;3.58;100.00
54872;BME280;43914;57.680;11.982;2023-01-30T05:29:42;98094.70;;;3.59;100.00
54872;BME280;43914;57.680;11.982;2023-01-30T05:32:11;98081.13;;;3.60;100.00
54872;BME280;43914;57.680;11.982;2023-01-30T05:34:37;98083.73;;;3.63;100.00
54872;BME280;43914;57.680;11.982;2023-01-30T05:37:02;98084.02;;;3.64;100.00
54872;BME280;43914;57.680;11.982;2023-01-30T05:39:28;98081.52;;;3.65;100.00
54872;BME280;43914;57.680;11.982;2023-01-30T05:41:53;98084.20;;;3.65;100.00
54872;BME280;43914;57.680;11.982;2023-01-30T05:44:19;98081.27;;;3.66;100.00
54872;BME280;43914;57.680;11.982;2023-01-30T05:46:44;98088.10;;;3.67;100.00
54872;BME280;43914;57.680;11.982;2023-01-30T05:49:10;98089.37;;;3.68;100.00
54872;BME280;43914;57.680;11.982;2023-01-30T05:51:35;98092.43;;;3.67;100.00
54872;BME280;43914;57.680;11.982;2023-01-30T05:54:01;98077.80;;;3.68;100.00
54872;BME280;43914;57.680;11.982;2023-01-30T05:56:26;98081.44;;;3.67;100.00
54872;BME280;43914;57.680;11.982;2023-01-30T05:58:53;98093.66;;;3.65;100.00
54872;BME280;43914;57.680;11.982;2023-01-30T06:01:20;98085.70;;;3.62;100.00
54872;BME280;43914;57.680;11.982;2023-01-30T06:03:46;98083.58;;;3.59;100.00
54872;BME280;43914;57.680;11.982;2023-01-30T06:06:12;98079.53;;;3.60;100.00
54872;BME280;43914;57.680;11.982;2023-01-30T06:08:39;98089.54;;;3.58;100.00
54872;BME280;43914;57.680;11.982;2023-01-30T06:11:07;98084.31;;;3.58;100.00
54872;BME280;43914;57.680;11.982;2023-01-30T06:13:34;98081.98;;;3.58;100.00
54872;BME280;43914;57.680;11.982;2023-01-30T06:15:59;98086.80;;;3.58;100.00
54872;BME280;43914;57.680;11.982;2023-01-30T06:18:25;98072.62;;;3.58;100.00
54872;BME280;43914;57.680;11.982;2023-01-30T06:20:52;98078.79;;;3.55;100.00
54872;BME280;43914;57.680;11.982;2023-01-30T06:23:18;98082.30;;;3.53;100.00
54872;BME280;43914;57.680;11.982;2023-01-30T06:25:45;98077.61;;;3.52;100.00
54872;BME280;43914;57.680;11.982;2023-01-30T06:28:12;98092.77;;;3.51;100.00
54872;BME280;43914;57.680;11.982;2023-01-30T06:30:39;98088.44;;;3.49;100.00
54872;BME280;43914;57.680;11.982;2023-01-30T06:33:05;98080.74;;;3.49;100.00
54872;BME280;43914;57.680;11.982;2023-01-30T06:35:31;98079.03;;;3.50;100.00
54872;BME280;43914;57.680;11.982;2023-01-30T06:37:57;98077.23;;;3.50;100.00
54872;BME280;43914;57.680;11.982;2023-01-30T06:40:22;98071.03;;;3.51;100.00
54872;BME280;43914;57.680;11.982;2023-01-30T06:42:49;98062.90;;;3.52;100.00
54872;BME280;43914;57.680;11.982;2023-01-30T06:45:17;98056.00;;;3.53;100.00
54872;BME280;43914;57.680;11.982;2023-01-30T06:47:54;98058.27;;;3.55;100.00
54872;BME280;43914;57.680;11.982;2023-01-30T06:50:22;98052.35;;;3.57;100.00
54872;BME280;43914;57.680;11.982;2023-01-30T06:52:49;98054.07;;;3.58;100.00
54872;BME280;43914;57.680;11.982;2023-01-30T06:55:18;98053.34;;;3.60;100.00
54872;BME280;43914;57.680;11.982;2023-01-30T06:57:44;98056.02;;;3.63;100.00
54872;BME280;43914;57.680;11.982;2023-01-30T07:00:24;98054.96;;;3.63;100.00
54872;BME280;43914;57.680;11.982;2023-01-30T07:02:49;98064.36;;;3.69;100.00
54872;BME280;43914;57.680;11.982;2023-01-30T07:05:15;98063.62;;;3.71;100.00
54872;BME280;43914;57.680;11.982;2023-01-30T07:07:41;98059.12;;;3.72;100.00
54872;BME280;43914;57.680;11.982;2023-01-30T07:10:09;98052.02;;;3.74;100.00
54872;BME280;43914;57.680;11.982;2023-01-30T07:12:36;98046.48;;;3.74;100.00
54872;BME280;43914;57.680;11.982;2023-01-30T07:15:03;98037.84;;;3.76;100.00
54872;BME280;43914;57.680;11.982;2023-01-30T07:17:29;98035.05;;;3.77;100.00
54872;BME280;43914;57.680;11.982;2023-01-30T07:19:54;98038.40;;;3.75;100.00
54872;BME280;43914;57.680;11.982;2023-01-30T07:22:19;98045.92;;;3.73;100.00
54872;BME280;43914;57.680;11.982;2023-01-30T07:24:46;98053.07;;;3.72;100.00
54872;BME280;43914;57.680;11.982;2023-01-30T07:27:12;98055.77;;;3.70;100.00
54872;BME280;43914;57.680;11.982;2023-01-30T07:29:39;98064.56;;;3.68;99.91
54872;BME280;43914;57.680;11.982;2023-01-30T07:32:06;98066.33;;;3.67;99.77
54872;BME280;43914;57.680;11.982;2023-01-30T07:34:32;98073.93;;;3.65;99.70
54872;BME280;43914;57.680;11.982;2023-01-30T07:36:58;98068.02;;;3.66;99.81
54872;BME280;43914;57.680;11.982;2023-01-30T07:39:24;98066.20;;;3.65;99.92
54872;BME280;43914;57.680;11.982;2023-01-30T07:41:49;98066.95;;;3.62;99.88
54872;BME280;43914;57.680;11.982;2023-01-30T07:44:15;98069.02;;;3.56;99.99
54872;BME280;43914;57.680;11.982;2023-01-30T07:46:40;98067.71;;;3.57;99.92
54872;BME280;43914;57.680;11.982;2023-01-30T07:49:06;98060.73;;;3.55;99.96
54872;BME280;43914;57.680;11.982;2023-01-30T07:51:33;98054.08;;;3.53;100.00
54872;BME280;43914;57.680;11.982;2023-01-30T07:53:59;98057.76;;;3.52;100.00
54872;BME280;43914;57.680;11.982;2023-01-30T07:56:28;98063.11;;;3.52;100.00
54872;BME280;43914;57.680;11.982;2023-01-30T07:58:55;98074.38;;;3.52;100.00
54872;BME280;43914;57.680;11.982;2023-01-30T08:01:24;98077.60;;;3.52;100.00
54872;BME280;43914;57.680;11.982;2023-01-30T08:03:49;98068.62;;;3.53;100.00
54872;BME280;43914;57.680;11.982;2023-01-30T08:06:15;98071.27;;;3.52;100.00
54872;BME280;43914;57.680;11.982;2023-01-30T08:08:41;98071.89;;;3.53;100.00
54872;BME280;43914;57.680;11.982;2023-01-30T08:11:08;98075.23;;;3.53;100.00
54872;BME280;43914;57.680;11.982;2023-01-30T08:13:34;98083.29;;;3.53;100.00
54872;BME280;43914;57.680;11.982;2023-01-30T08:16:05;98072.86;;;3.57;100.00
54872;BME280;43914;57.680;11.982;2023-01-30T08:18:32;98070.83;;;3.60;100.00
54872;BME280;43914;57.680;11.982;2023-01-30T08:20:59;98083.25;;;3.63;100.00
54872;BME280;43914;57.680;11.982;2023-01-30T08:23:26;98067.34;;;3.62;100.00
54872;BME280;43914;57.680;11.982;2023-01-30T08:26:00;98079.60;;;3.68;100.00
54872;BME280;43914;57.680;11.982;2023-01-30T08:28:27;98080.46;;;3.69;100.00
54872;BME280;43914;57.680;11.982;2023-01-30T08:30:54;98075.27;;;3.70;100.00
54872;BME280;43914;57.680;11.982;2023-01-30T08:33:20;98073.80;;;3.71;100.00
54872;BME280;43914;57.680;11.982;2023-01-30T08:35:46;98077.23;;;3.73;100.00
54872;BME280;43914;57.680;11.982;2023-01-30T08:38:12;98078.29;;;3.77;100.00
54872;BME280;43914;57.680;11.982;2023-01-30T08:40:38;98083.20;;;3.80;100.00
54872;BME280;43914;57.680;11.982;2023-01-30T08:43:04;98075.82;;;3.84;100.00
54872;BME280;43914;57.680;11.982;2023-01-30T08:45:30;98077.66;;;3.89;100.00
54872;BME280;43914;57.680;11.982;2023-01-30T08:48:00;98085.25;;;3.95;100.00
54872;BME280;43914;57.680;11.982;2023-01-30T08:50:26;98082.98;;;3.99;100.00
54872;BME280;43914;57.680;11.982;2023-01-30T08:52:52;98085.77;;;4.03;100.00
54872;BME280;43914;57.680;11.982;2023-01-30T08:55:18;98092.95;;;4.04;100.00
54872;BME280;43914;57.680;11.982;2023-01-30T08:57:43;98094.32;;;4.07;100.00
54872;BME280;43914;57.680;11.982;2023-01-30T09:00:10;98098.48;;;4.09;100.00
54872;BME280;43914;57.680;11.982;2023-01-30T09:02:36;98104.81;;;4.10;100.00
54872;BME280;43914;57.680;11.982;2023-01-30T09:05:02;98106.04;;;4.11;100.00
54872;BME280;43914;57.680;11.982;2023-01-30T09:07:28;98094.73;;;4.15;100.00
54872;BME280;43914;57.680;11.982;2023-01-30T09:09:54;98097.38;;;4.18;99.94
54872;BME280;43914;57.680;11.982;2023-01-30T09:12:20;98085.84;;;4.23;100.00
54872;BME280;43914;57.680;11.982;2023-01-30T09:14:46;98102.82;;;4.38;100.00
54872;BME280;43914;57.680;11.982;2023-01-30T09:17:12;98096.56;;;4.40;99.23
54872;BME280;43914;57.680;11.982;2023-01-30T09:19:38;98098.23;;;4.35;97.27
54872;BME280;43914;57.680;11.982;2023-01-30T09:22:04;98108.11;;;4.30;96.58
54872;BME280;43914;57.680;11.982;2023-01-30T09:24:32;98102.44;;;4.28;97.00
54872;BME280;43914;57.680;11.982;2023-01-30T09:26:57;98093.58;;;4.24;97.89
54872;BME280;43914;57.680;11.982;2023-01-30T09:29:26;98086.65;;;4.25;98.95
54872;BME280;43914;57.680;11.982;2023-01-30T09:31:55;98099.02;;;4.24;99.79
54872;BME280;43914;57.680;11.982;2023-01-30T09:34:22;98098.57;;;4.25;100.00
54872;BME280;43914;57.680;11.982;2023-01-30T09:36:56;98095.82;;;4.27;100.00
54872;BME280;43914;57.680;11.982;2023-01-30T09:39:25;98096.30;;;4.29;100.00
54872;BME280;43914;57.680;11.982;2023-01-30T09:50:13;98115.92;;;4.43;100.00
54872;BME280;43914;57.680;11.982;2023-01-30T09:55:25;98135.59;;;4.53;99.21
54872;BME280;43914;57.680;11.982;2023-01-30T09:57:56;98112.71;;;4.54;98.25
54872;BME280;43914;57.680;11.982;2023-01-30T10:00:34;98104.27;;;4.55;97.70
54872;BME280;43914;57.680;11.982;2023-01-30T10:03:10;98098.14;;;4.56;97.64
54872;BME280;43914;57.680;11.982;2023-01-30T10:13:39;98120.25;;;4.39;97.10
54872;BME280;43914;57.680;11.982;2023-01-30T10:19:08;98120.48;;;4.25;96.52
54872;BME280;43914;57.680;11.982;2023-01-30T10:27:16;98146.36;;;4.33;96.46
54872;BME280;43914;57.680;11.982;2023-01-30T10:29:46;98145.16;;;4.36;95.31
54872;BME280;43914;57.680;11.982;2023-01-30T10:32:20;98142.58;;;4.35;94.36
54872;BME280;43914;57.680;11.982;2023-01-30T10:34:54;98129.05;;;4.38;94.70
54872;BME280;43914;57.680;11.982;2023-01-30T10:37:43;98127.20;;;4.41;94.85
54872;BME280;43914;57.680;11.982;2023-01-30T10:40:37;98135.61;;;4.43;94.19
54872;BME280;43914;57.680;11.982;2023-01-30T11:04:50;98190.17;;;4.79;89.59
54872;BME280;43914;57.680;11.982;2023-01-30T11:07:17;98199.95;;;4.81;87.48
54872;BME280;43914;57.680;11.982;2023-01-30T11:09:46;98187.50;;;4.81;85.80
54872;BME280;43914;57.680;11.982;2023-01-30T11:12:12;98189.88;;;4.84;85.72
54872;BME280;43914;57.680;11.982;2023-01-30T11:17:39;98187.91;;;4.86;85.83
54872;BME280;43914;57.680;11.982;2023-01-30T11:20:14;98191.15;;;4.84;85.66
54872;BME280;43914;57.680;11.982;2023-01-30T11:23:03;98200.61;;;4.84;86.38
54872;BME280;43914;57.680;11.982;2023-01-30T11:25:30;98195.58;;;4.87;87.03
54872;BME280;43914;57.680;11.982;2023-01-30T11:28:11;98208.77;;;4.90;86.91
54872;BME280;43914;57.680;11.982;2023-01-30T11:30:37;98197.34;;;4.92;87.06
54872;BME280;43914;57.680;11.982;2023-01-30T11:33:11;98187.23;;;4.92;87.41
54872;BME280;43914;57.680;11.982;2023-01-30T11:36:04;98193.93;;;4.95;87.79
54872;BME280;43914;57.680;11.982;2023-01-30T11:38:35;98206.38;;;4.96;87.46
54872;BME280;43914;57.680;11.982;2023-01-30T11:43:33;98202.17;;;4.93;88.24
54872;BME280;43914;57.680;11.982;2023-01-30T11:45:59;98211.20;;;4.97;88.47
54872;BME280;43914;57.680;11.982;2023-01-30T11:48:29;98219.10;;;4.98;87.55
54872;BME280;43914;57.680;11.982;2023-01-30T11:51:05;98205.51;;;4.97;87.44
54872;BME280;43914;57.680;11.982;2023-01-30T11:56:07;98226.55;;;4.91;86.47
54872;BME280;43914;57.680;11.982;2023-01-30T11:58:37;98225.85;;;4.90;86.67
54872;BME280;43914;57.680;11.982;2023-01-30T12:01:04;98224.55;;;4.87;86.82
54872;BME280;43914;57.680;11.982;2023-01-30T12:03:32;98232.30;;;4.85;86.82
54872;BME280;43914;57.680;11.982;2023-01-30T12:05:58;98237.25;;;4.84;87.07
54872;BME280;43914;57.680;11.982;2023-01-30T12:08:42;98237.86;;;4.83;86.89
54872;BME280;43914;57.680;11.982;2023-01-30T12:17:21;98259.31;;;4.72;87.11
54872;BME280;43914;57.680;11.982;2023-01-30T12:20:02;98259.74;;;4.67;86.25
54872;BME280;43914;57.680;11.982;2023-01-30T12:22:40;98252.64;;;4.65;86.53
54872;BME280;43914;57.680;11.982;2023-01-30T12:25:16;98264.35;;;4.63;86.26
54872;BME280;43914;57.680;11.982;2023-01-30T12:27:55;98256.83;;;4.61;86.27
54872;BME280;43914;57.680;11.982;2023-01-30T12:30:54;98259.36;;;4.61;86.29
54872;BME280;43914;57.680;11.982;2023-01-30T12:33:22;98262.60;;;4.59;85.39
54872;BME280;43914;57.680;11.982;2023-01-30T12:36:01;98255.58;;;4.58;86.13
54872;BME280;43914;57.680;11.982;2023-01-30T12:44:06;98256.54;;;4.61;85.68
54872;BME280;43914;57.680;11.982;2023-01-30T12:47:14;98270.20;;;4.63;85.34
54872;BME280;43914;57.680;11.982;2023-01-30T13:07:06;98282.81;;;4.70;83.97
54872;BME280;43914;57.680;11.982;2023-01-30T13:12:20;98308.92;;;4.72;84.07
54872;BME280;43914;57.680;11.982;2023-01-30T13:20:14;98333.98;;;4.68;82.90
54872;BME280;43914;57.680;11.982;2023-01-30T13:26:01;98347.19;;;4.70;82.78
54872;BME280;43914;57.680;11.982;2023-01-30T13:28:54;98353.95;;;4.71;83.47
54872;BME280;43914;57.680;11.982;2023-01-30T13:31:24;98359.15;;;4.72;83.43
54872;BME280;43914;57.680;11.982;2023-01-30T13:37:18;98373.92;;;4.74;82.81
54872;BME280;43914;57.680;11.982;2023-01-30T13:39:57;98374.54;;;4.74;80.78
54872;BME280;43914;57.680;11.982;2023-01-30T13:42:55;98385.55;;;4.76;80.58
54872;BME280;43914;57.680;11.982;2023-01-30T13:45:29;98401.14;;;4.78;79.71
54872;BME280;43914;57.680;11.982;2023-01-30T14:00:55;98462.27;;;4.82;79.25
54872;BME280;43914;57.680;11.982;2023-01-30T14:03:30;98465.14;;;4.82;79.39
54872;BME280;43914;57.680;11.982;2023-01-30T14:08:53;98481.06;;;4.81;79.70
54872;BME280;43914;57.680;11.982;2023-01-30T14:11:40;98481.02;;;4.80;78.41
54872;BME280;43914;57.680;11.982;2023-01-30T14:16:45;98495.84;;;4.80;76.74
54872;BME280;43914;57.680;11.982;2023-01-30T14:21:55;98508.90;;;4.79;75.54
54872;BME280;43914;57.680;11.982;2023-01-30T14:24:22;98510.34;;;4.80;75.77
54872;BME280;43914;57.680;11.982;2023-01-30T14:40:00;98540.21;;;4.74;70.50
54872;BME280;43914;57.680;11.982;2023-01-30T14:42:30;98556.21;;;4.74;70.55
54872;BME280;43914;57.680;11.982;2023-01-30T14:47:30;98573.91;;;4.73;67.94
54872;BME280;43914;57.680;11.982;2023-01-30T14:49:57;98575.50;;;4.73;66.95
54872;BME280;43914;57.680;11.982;2023-01-30T14:52:39;98582.38;;;4.74;64.50
54872;BME280;43914;57.680;11.982;2023-01-30T14:55:16;98592.50;;;4.74;64.34
54872;BME280;43914;57.680;11.982;2023-01-30T14:57:56;98599.13;;;4.73;64.76
54872;BME280;43914;57.680;11.982;2023-01-30T15:00:28;98611.27;;;4.70;65.12
54872;BME280;43914;57.680;11.982;2023-01-30T15:03:03;98621.72;;;4.69;64.86
54872;BME280;43914;57.680;11.982;2023-01-30T15:05:43;98632.42;;;4.67;65.25
54872;BME280;43914;57.680;11.982;2023-01-30T15:08:17;98636.17;;;4.64;65.15
54872;BME280;43914;57.680;11.982;2023-01-30T15:10:50;98631.42;;;4.63;65.17
54872;BME280;43914;57.680;11.982;2023-01-30T15:16:06;98639.67;;;4.56;64.94
54872;BME280;43914;57.680;11.982;2023-01-30T15:26:57;98664.89;;;4.46;66.76
54872;BME280;43914;57.680;11.982;2023-01-30T15:32:21;98678.08;;;4.39;66.91
54872;BME280;43914;57.680;11.982;2023-01-30T15:37:30;98692.37;;;4.35;66.59
54872;BME280;43914;57.680;11.982;2023-01-30T15:51:04;98718.45;;;4.32;66.69
54872;BME280;43914;57.680;11.982;2023-01-30T15:53:42;98730.55;;;4.30;66.47
54872;BME280;43914;57.680;11.982;2023-01-30T15:56:12;98739.29;;;4.28;66.67
54872;BME280;43914;57.680;11.982;2023-01-30T15:58:42;98744.48;;;4.26;65.49
54872;BME280;43914;57.680;11.982;2023-01-30T16:01:10;98748.31;;;4.26;65.18
54872;BME280;43914;57.680;11.982;2023-01-30T16:03:41;98748.63;;;4.23;65.00
54872;BME280;43914;57.680;11.982;2023-01-30T16:09:04;98746.02;;;4.20;65.35
54872;BME280;43914;57.680;11.982;2023-01-30T16:11:39;98750.16;;;4.16;64.90
54872;BME280;43914;57.680;11.982;2023-01-30T16:14:13;98760.27;;;4.13;64.43
54872;BME280;43914;57.680;11.982;2023-01-30T16:16:52;98770.09;;;4.12;64.68
54872;BME280;43914;57.680;11.982;2023-01-30T16:19:25;98782.88;;;4.11;64.78
54872;BME280;43914;57.680;11.982;2023-01-30T16:21:59;98780.90;;;4.09;64.79
54872;BME280;43914;57.680;11.982;2023-01-30T16:24:35;98788.42;;;4.10;64.73
54872;BME280;43914;57.680;11.982;2023-01-30T16:27:05;98791.31;;;4.08;64.03
54872;BME280;43914;57.680;11.982;2023-01-30T16:29:41;98795.73;;;4.06;64.42
54872;BME280;43914;57.680;11.982;2023-01-30T16:32:14;98806.00;;;4.05;64.33
54872;BME280;43914;57.680;11.982;2023-01-30T16:34:42;98807.88;;;4.04;64.25